createdAt,value
2023-05-05T00:00:28.685Z,31.20
2023-05-05T00:02:57.245Z,31.20
2023-05-05T00:05:25.826Z,31.20
2023-05-05T00:07:53.721Z,31.20
2023-05-05T00:10:21.427Z,31.30
2023-05-05T00:12:49.377Z,31.30
2023-05-05T00:15:17.533Z,31.30
2023-05-05T00:17:45.517Z,31.30
2023-05-05T00:20:13.575Z,31.30
2023-05-05T00:22:41.320Z,31.40
2023-05-05T00:25:09.610Z,31.40
2023-05-05T00:27:40.170Z,31.50
2023-05-05T00:30:08.949Z,31.50
2023-05-05T00:32:37.547Z,31.50
2023-05-05T00:35:05.818Z,31.50
2023-05-05T00:37:35.290Z,31.60
2023-05-05T00:40:05.610Z,31.60
2023-05-05T00:42:37.697Z,31.70
2023-05-05T00:45:08.112Z,31.70
2023-05-05T00:47:36.761Z,31.80
2023-05-05T00:50:06.837Z,31.70
2023-05-05T00:52:39.815Z,31.80
2023-05-05T00:55:08.088Z,31.90
2023-05-05T00:57:38.921Z,32.00
2023-05-05T01:00:07.413Z,32.10
2023-05-05T01:02:37.042Z,32.10
2023-05-05T01:05:17.763Z,32.20
2023-05-05T01:07:46.388Z,32.30
2023-05-05T01:10:20.398Z,32.30
2023-05-05T01:12:51.353Z,32.30
2023-05-05T01:15:20.069Z,32.40
2023-05-05T01:17:48.408Z,32.40
2023-05-05T01:20:17.466Z,32.40
2023-05-05T01:22:45.528Z,32.60
2023-05-05T01:25:13.803Z,32.60
2023-05-05T01:27:42.212Z,32.70
2023-05-05T01:30:12.518Z,32.80
2023-05-05T01:32:40.481Z,32.80
2023-05-05T01:35:10.770Z,32.90
2023-05-05T01:37:38.712Z,33.00
2023-05-05T01:40:07.911Z,33.10
2023-05-05T01:42:36.218Z,33.10
2023-05-05T01:45:18.211Z,33.10
2023-05-05T01:47:54.920Z,33.10
2023-05-05T01:50:23.116Z,33.20
2023-05-05T01:52:51.444Z,33.30
2023-05-05T01:55:19.529Z,33.40
2023-05-05T01:57:47.576Z,33.50
2023-05-05T02:00:15.295Z,33.50
2023-05-05T02:02:44.321Z,33.40
2023-05-05T02:05:12.348Z,33.50
2023-05-05T02:07:40.340Z,33.60
2023-05-05T02:13:00.075Z,33.80
2023-05-05T02:15:29.735Z,33.90
2023-05-05T02:17:59.551Z,33.90
2023-05-05T02:20:29.526Z,34.10
2023-05-05T02:22:58.421Z,34.20
2023-05-05T02:25:26.549Z,34.30
2023-05-05T02:27:54.605Z,34.30
2023-05-05T02:30:23.185Z,34.30
2023-05-05T02:32:52.121Z,34.40
2023-05-05T02:35:19.820Z,34.40
2023-05-05T02:37:48.126Z,34.50
2023-05-05T02:40:16.062Z,34.70
2023-05-05T02:42:44.711Z,34.70
2023-05-05T02:45:12.992Z,34.80
2023-05-05T02:47:40.849Z,34.80
2023-05-05T02:50:08.966Z,34.80
2023-05-05T02:52:37.684Z,34.90
2023-05-05T02:55:05.579Z,35.00
2023-05-05T02:57:33.757Z,35.10
2023-05-05T03:00:02.054Z,35.10
2023-05-05T03:02:32.415Z,35.10
2023-05-05T03:05:00.232Z,35.10
2023-05-05T03:07:27.999Z,35.10
2023-05-05T03:09:55.689Z,35.20
2023-05-05T03:12:23.969Z,35.30
2023-05-05T03:14:51.766Z,35.40
2023-05-05T03:17:19.336Z,35.40
2023-05-05T03:19:47.152Z,35.50
2023-05-05T03:22:15.104Z,35.50
2023-05-05T03:24:42.757Z,35.50
2023-05-05T03:27:10.804Z,35.60
2023-05-05T03:29:38.588Z,35.70
2023-05-05T03:32:06.566Z,35.90
2023-05-05T03:37:17.323Z,36.00
2023-05-05T03:39:45.458Z,36.00
2023-05-05T03:42:13.839Z,36.00
2023-05-05T03:44:42.365Z,36.10
2023-05-05T03:47:10.350Z,36.20
2023-05-05T03:49:38.216Z,36.10
2023-05-05T03:52:06.222Z,36.10
2023-05-05T03:54:34.402Z,36.30
2023-05-05T03:57:02.324Z,36.50
2023-05-05T03:59:30.216Z,36.60
2023-05-05T04:01:58.041Z,36.70
2023-05-05T04:04:25.958Z,36.70
2023-05-05T04:06:53.862Z,36.70
2023-05-05T04:09:22.448Z,36.70
2023-05-05T04:11:50.315Z,36.60
2023-05-05T04:14:18.426Z,36.40
2023-05-05T04:16:47.066Z,36.70
2023-05-05T04:19:14.930Z,36.80
2023-05-05T04:21:42.839Z,36.70
2023-05-05T04:24:10.462Z,36.80
2023-05-05T04:26:38.678Z,36.90
2023-05-05T04:29:07.148Z,37.10
2023-05-05T04:31:35.097Z,37.20
2023-05-05T04:34:02.838Z,37.40
2023-05-05T04:36:30.801Z,37.20
2023-05-05T04:38:59.419Z,37.10
2023-05-05T04:41:29.471Z,37.30
2023-05-05T04:43:58.243Z,37.40
2023-05-05T04:46:26.540Z,37.50
2023-05-05T04:48:54.532Z,37.60
2023-05-05T04:51:22.259Z,37.70
2023-05-05T04:53:50.271Z,37.80
2023-05-05T04:56:18.123Z,37.90
2023-05-05T04:58:46.172Z,38.00
2023-05-05T05:01:13.779Z,38.00
2023-05-05T05:03:41.533Z,37.90
2023-05-05T05:06:09.555Z,38.00
2023-05-05T05:08:37.680Z,38.20
2023-05-05T05:11:05.719Z,38.20
2023-05-05T05:13:33.737Z,38.30
2023-05-05T05:16:01.527Z,38.30
2023-05-05T05:18:29.292Z,38.60
2023-05-05T05:20:58.282Z,38.70
2023-05-05T05:23:35.882Z,38.70
2023-05-05T05:26:03.750Z,38.50
2023-05-05T05:28:33.249Z,38.60
2023-05-05T05:31:01.216Z,38.30
2023-05-05T05:33:29.322Z,38.40
2023-05-05T05:35:57.433Z,38.70
2023-05-05T05:38:25.602Z,38.90
2023-05-05T05:40:53.891Z,39.00
2023-05-05T05:43:21.695Z,39.10
2023-05-05T05:45:49.553Z,39.20
2023-05-05T05:48:17.860Z,39.10
2023-05-05T05:50:46.231Z,39.10
2023-05-05T05:53:14.222Z,39.30
2023-05-05T05:55:42.358Z,39.50
2023-05-05T05:58:10.098Z,39.40
2023-05-05T06:00:39.632Z,39.50
2023-05-05T06:03:08.172Z,39.50
2023-05-05T06:05:36.252Z,39.50
2023-05-05T06:08:06.581Z,39.30
2023-05-05T06:10:34.700Z,39.30
2023-05-05T06:13:02.837Z,39.50
2023-05-05T06:15:30.594Z,39.70
2023-05-05T06:17:58.526Z,39.70
2023-05-05T06:20:26.212Z,39.70
2023-05-05T06:22:54.213Z,39.70
2023-05-05T06:25:23.766Z,39.80
2023-05-05T06:27:51.465Z,39.90
2023-05-05T06:30:19.340Z,39.70
2023-05-05T06:32:47.310Z,39.50
2023-05-05T06:35:15.957Z,39.50
2023-05-05T06:37:44.557Z,39.60
2023-05-05T06:40:12.591Z,39.50
2023-05-05T06:42:40.858Z,39.10
2023-05-05T06:45:08.842Z,39.00
2023-05-05T06:47:37.324Z,39.10
2023-05-05T06:50:06.386Z,39.00
2023-05-05T06:52:35.156Z,38.90
2023-05-05T06:55:02.904Z,39.10
2023-05-05T06:57:30.899Z,39.30
2023-05-05T06:59:58.897Z,39.50
2023-05-05T07:02:27.018Z,39.40
2023-05-05T07:04:54.796Z,39.30
2023-05-05T07:07:22.723Z,39.40
2023-05-05T07:09:50.703Z,39.40
2023-05-05T07:12:18.344Z,39.50
2023-05-05T07:14:46.038Z,39.30
2023-05-05T07:17:13.889Z,39.30
2023-05-05T07:19:41.801Z,39.00
2023-05-05T07:22:09.918Z,39.30
2023-05-05T07:24:37.739Z,39.60
2023-05-05T07:27:05.509Z,39.60
2023-05-05T07:29:34.189Z,39.70
2023-05-05T07:32:02.075Z,39.80
2023-05-05T07:34:29.725Z,40.10
2023-05-05T07:36:57.295Z,40.00
2023-05-05T07:39:25.434Z,40.00
2023-05-05T07:41:53.085Z,40.10
2023-05-05T07:44:21.063Z,40.30
2023-05-05T07:46:49.215Z,40.30
2023-05-05T07:49:16.867Z,40.40
2023-05-05T07:51:44.644Z,40.40
2023-05-05T07:54:12.353Z,40.30
2023-05-05T07:56:40.166Z,40.40
2023-05-05T07:59:08.120Z,40.50
2023-05-05T08:01:36.059Z,40.40
2023-05-05T08:04:03.865Z,39.90
2023-05-05T08:06:31.803Z,39.70
2023-05-05T08:09:00.118Z,39.50
2023-05-05T08:11:29.576Z,39.40
2023-05-05T08:13:57.586Z,39.30
2023-05-05T08:16:25.432Z,39.40
2023-05-05T08:18:53.155Z,39.50
2023-05-05T08:21:21.116Z,39.50
2023-05-05T08:23:48.795Z,39.50
2023-05-05T08:26:16.582Z,39.40
2023-05-05T08:28:44.413Z,39.40
2023-05-05T08:31:12.084Z,39.40
2023-05-05T08:33:39.855Z,39.60
2023-05-05T08:36:07.829Z,39.70
2023-05-05T08:38:35.657Z,39.90
2023-05-05T08:41:03.732Z,40.00
2023-05-05T08:43:32.218Z,40.00
2023-05-05T08:45:59.997Z,39.90
2023-05-05T08:48:27.785Z,39.90
2023-05-05T08:50:56.702Z,39.80
2023-05-05T08:53:29.487Z,39.90
2023-05-05T08:55:57.206Z,39.90
2023-05-05T08:58:28.263Z,39.90
2023-05-05T09:00:56.890Z,39.90
2023-05-05T09:03:25.022Z,39.90
2023-05-05T09:05:52.949Z,39.90
2023-05-05T09:08:21.070Z,39.90
2023-05-05T09:10:48.941Z,39.90
2023-05-05T09:13:17.014Z,39.80
2023-05-05T09:15:45.153Z,39.80
2023-05-05T09:18:13.704Z,39.80
2023-05-05T09:20:41.578Z,39.60
2023-05-05T09:23:09.345Z,39.50
2023-05-05T09:25:37.618Z,39.50
2023-05-05T09:28:05.161Z,39.50
2023-05-05T09:30:34.000Z,39.50
2023-05-05T09:33:01.760Z,39.30
2023-05-05T09:35:29.513Z,39.20
2023-05-05T09:37:57.159Z,39.20
2023-05-05T09:40:25.184Z,39.20
2023-05-05T09:42:52.678Z,39.10
2023-05-05T09:45:20.416Z,39.10
2023-05-05T09:47:49.086Z,39.00
2023-05-05T09:50:17.591Z,38.80
2023-05-05T09:52:46.699Z,38.60
2023-05-05T09:55:15.718Z,38.50
2023-05-05T09:57:52.513Z,38.50
2023-05-05T10:00:20.561Z,38.40
2023-05-05T10:02:49.965Z,38.30
2023-05-05T10:05:18.337Z,38.30
2023-05-05T10:07:46.294Z,38.20
2023-05-05T10:10:14.005Z,38.10
2023-05-05T10:12:42.116Z,38.00
2023-05-05T10:15:11.009Z,37.80
2023-05-05T10:17:41.337Z,37.70
2023-05-05T10:20:11.820Z,37.50
2023-05-05T10:22:41.714Z,37.40
2023-05-05T10:25:09.482Z,37.40
2023-05-05T10:27:40.018Z,37.30
2023-05-05T10:30:11.437Z,37.20
2023-05-05T10:35:09.702Z,37.10
2023-05-05T10:37:38.307Z,37.10
2023-05-05T10:40:08.465Z,36.80
2023-05-05T10:42:41.283Z,36.80
2023-05-05T10:45:10.821Z,36.80
2023-05-05T10:47:38.905Z,36.80
2023-05-05T10:50:07.692Z,36.80
2023-05-05T10:52:37.728Z,36.80
2023-05-05T10:55:16.210Z,36.90
2023-05-05T10:57:43.956Z,36.80
2023-05-05T11:00:12.894Z,36.80
2023-05-05T11:02:42.435Z,36.80
2023-05-05T11:05:12.077Z,36.60
2023-05-05T11:07:40.954Z,36.60
2023-05-05T11:10:09.091Z,36.60
2023-05-05T11:12:38.836Z,36.60
2023-05-05T11:15:07.587Z,36.60
2023-05-05T11:17:37.891Z,36.60
2023-05-05T11:20:05.830Z,36.50
2023-05-05T11:22:34.847Z,36.50
2023-05-05T11:25:02.858Z,36.50
2023-05-05T11:27:30.421Z,36.50
2023-05-05T11:29:58.411Z,36.40
2023-05-05T11:32:26.631Z,36.40
2023-05-05T11:34:54.209Z,36.30
2023-05-05T11:37:21.801Z,36.40
2023-05-05T11:39:49.717Z,36.30
2023-05-05T11:42:17.403Z,36.30
2023-05-05T11:44:45.143Z,36.30
2023-05-05T11:47:13.109Z,36.40
2023-05-05T11:49:40.997Z,36.40
2023-05-05T11:52:08.769Z,36.40
2023-05-05T11:54:36.991Z,36.40
2023-05-05T11:57:24.411Z,36.30
2023-05-05T11:59:52.443Z,36.30
2023-05-05T12:02:20.112Z,36.30
2023-05-05T12:04:47.938Z,36.20
2023-05-05T12:07:15.927Z,36.20
2023-05-05T12:09:43.768Z,36.20
2023-05-05T12:12:11.636Z,36.10
2023-05-05T12:14:39.518Z,36.20
2023-05-05T12:17:08.504Z,36.20
2023-05-05T12:19:45.766Z,36.10
2023-05-05T12:22:13.855Z,36.00
2023-05-05T12:24:41.878Z,36.00
2023-05-05T12:27:10.147Z,35.90
2023-05-05T12:29:38.257Z,35.90
2023-05-05T12:32:06.019Z,35.80
2023-05-05T12:34:33.690Z,35.80
2023-05-05T12:37:01.414Z,35.90
2023-05-05T12:39:29.097Z,35.80
2023-05-05T12:41:56.788Z,35.80
2023-05-05T12:44:24.702Z,35.70
2023-05-05T12:46:52.360Z,35.60
2023-05-05T12:49:20.656Z,35.70
2023-05-05T12:51:49.330Z,35.60
2023-05-05T12:54:17.392Z,35.60
2023-05-05T12:56:45.530Z,35.60
2023-05-05T12:59:13.681Z,35.50
2023-05-05T13:01:41.398Z,35.50
2023-05-05T13:04:09.207Z,35.50
2023-05-05T13:06:37.361Z,35.40
2023-05-05T13:09:05.583Z,35.40
2023-05-05T13:11:38.061Z,35.40
2023-05-05T13:14:08.935Z,35.40
2023-05-05T13:16:36.572Z,35.30
2023-05-05T13:19:24.120Z,35.30
2023-05-05T13:21:51.837Z,35.20
2023-05-05T13:24:28.786Z,35.20
2023-05-05T13:27:06.510Z,35.10
2023-05-05T13:29:34.486Z,35.00
2023-05-05T13:32:02.244Z,35.00
2023-05-05T13:34:31.111Z,35.00
2023-05-05T13:36:58.971Z,35.00
2023-05-05T13:39:27.288Z,35.00
2023-05-05T13:41:54.988Z,34.90
2023-05-05T13:44:22.983Z,34.80
2023-05-05T13:46:52.219Z,34.70
2023-05-05T13:49:20.362Z,34.80
2023-05-05T13:51:48.411Z,34.70
2023-05-05T13:54:16.295Z,34.60
2023-05-05T13:56:44.188Z,34.60
2023-05-05T13:59:17.540Z,34.60
2023-05-05T14:01:45.395Z,34.50
2023-05-05T14:04:13.186Z,34.50
2023-05-05T14:06:41.292Z,34.50
2023-05-05T14:09:09.869Z,34.50
2023-05-05T14:11:37.892Z,34.40
2023-05-05T14:14:06.206Z,34.40
2023-05-05T14:16:34.351Z,34.40
2023-05-05T14:19:02.039Z,34.40
2023-05-05T14:21:30.031Z,34.30
2023-05-05T14:23:58.298Z,34.30
2023-05-05T14:26:26.260Z,34.30
2023-05-05T14:28:54.506Z,34.30
2023-05-05T14:31:23.169Z,34.40
2023-05-05T14:33:51.100Z,34.30
2023-05-05T14:36:18.802Z,34.30
2023-05-05T14:38:47.990Z,34.30
2023-05-05T14:41:15.842Z,34.40
2023-05-05T14:43:43.724Z,34.40
2023-05-05T14:46:11.763Z,34.40
2023-05-05T14:48:39.611Z,34.40
2023-05-05T14:51:07.355Z,34.30
2023-05-05T14:53:35.192Z,34.30
2023-05-05T14:56:02.977Z,34.40
2023-05-05T14:58:31.191Z,34.30
2023-05-05T15:01:01.163Z,34.30
2023-05-05T15:03:29.073Z,34.30
2023-05-05T15:06:08.019Z,34.30
2023-05-05T15:08:36.035Z,34.20
2023-05-05T15:11:04.709Z,34.30
2023-05-05T15:13:32.884Z,34.20
2023-05-05T15:16:00.922Z,34.30
2023-05-05T15:18:28.620Z,34.20
2023-05-05T15:20:56.544Z,34.20
2023-05-05T15:23:24.217Z,34.10
2023-05-05T15:25:52.092Z,34.10
2023-05-05T15:28:21.125Z,34.10
2023-05-05T15:30:49.221Z,34.20
2023-05-05T15:33:17.110Z,34.10
2023-05-05T15:35:44.945Z,34.20
2023-05-05T15:38:13.154Z,34.10
2023-05-05T15:40:40.909Z,34.10
2023-05-05T15:43:08.802Z,34.10
2023-05-05T15:45:36.761Z,34.00
2023-05-05T15:48:05.015Z,34.00
2023-05-05T15:50:33.204Z,34.00
2023-05-05T15:53:01.604Z,34.00
2023-05-05T15:55:29.658Z,34.00
2023-05-05T15:57:57.452Z,34.00
2023-05-05T16:00:25.547Z,34.00
2023-05-05T16:02:53.395Z,34.00
2023-05-05T16:05:22.820Z,34.00
2023-05-05T16:07:51.064Z,33.90
2023-05-05T16:10:18.776Z,33.90
2023-05-05T16:12:46.545Z,33.90
2023-05-05T16:15:14.285Z,34.00
2023-05-05T16:17:42.393Z,33.90
2023-05-05T16:20:11.463Z,33.90
2023-05-05T16:22:40.821Z,33.80
2023-05-05T16:25:09.304Z,33.90
2023-05-05T16:27:37.339Z,33.90
2023-05-05T16:30:06.263Z,33.90
2023-05-05T16:32:34.107Z,33.80
2023-05-05T16:35:02.634Z,33.80
2023-05-05T16:37:30.854Z,33.70
2023-05-05T16:39:58.856Z,33.80
2023-05-05T16:42:26.541Z,33.70
2023-05-05T16:44:54.775Z,33.70
2023-05-05T16:47:22.703Z,33.70
2023-05-05T16:49:50.644Z,33.70
2023-05-05T16:52:19.179Z,33.60
2023-05-05T16:54:46.985Z,33.60
2023-05-05T16:57:14.965Z,33.60
2023-05-05T16:59:43.266Z,33.70
2023-05-05T17:02:11.464Z,33.70
2023-05-05T17:04:39.440Z,33.60
2023-05-05T17:07:07.881Z,33.60
2023-05-05T17:09:36.006Z,33.60
2023-05-05T17:12:04.430Z,33.60
2023-05-05T17:14:34.046Z,33.60
2023-05-05T17:17:02.545Z,33.50
2023-05-05T17:19:31.528Z,33.60
2023-05-05T17:21:59.661Z,33.60
2023-05-05T17:24:27.545Z,33.50
2023-05-05T17:26:55.264Z,33.50
2023-05-05T17:29:23.912Z,33.50
2023-05-05T17:31:51.849Z,33.50
2023-05-05T17:34:20.834Z,33.50
2023-05-05T17:36:48.953Z,33.40
2023-05-05T17:39:16.935Z,33.40
2023-05-05T17:41:45.087Z,33.40
2023-05-05T17:44:13.416Z,33.50
2023-05-05T17:46:41.510Z,33.30
2023-05-05T17:49:09.928Z,33.30
2023-05-05T17:51:38.875Z,33.30
2023-05-05T17:54:06.926Z,33.40
2023-05-05T17:56:35.090Z,33.30
2023-05-05T17:59:03.048Z,33.40
2023-05-05T18:01:31.713Z,33.30
2023-05-05T18:03:59.452Z,33.30
2023-05-05T18:06:27.760Z,33.30
2023-05-05T18:08:56.060Z,33.20
2023-05-05T18:11:24.334Z,33.30
2023-05-05T18:13:52.595Z,33.20
2023-05-05T18:16:20.690Z,33.20
2023-05-05T18:18:48.555Z,33.30
2023-05-05T18:21:16.626Z,33.20
2023-05-05T18:23:44.308Z,33.20
2023-05-05T18:26:12.077Z,33.20
2023-05-05T18:28:39.876Z,33.10
2023-05-05T18:31:07.639Z,33.00
2023-05-05T18:33:35.340Z,33.10
2023-05-05T18:36:03.682Z,33.00
2023-05-05T18:38:32.733Z,33.10
2023-05-05T18:41:00.521Z,33.10
2023-05-05T18:43:28.491Z,33.10
2023-05-05T18:45:56.265Z,33.00
2023-05-05T18:48:24.575Z,32.90
2023-05-05T18:50:52.666Z,32.90
2023-05-05T18:53:20.408Z,32.90
2023-05-05T18:55:48.528Z,33.00
2023-05-05T18:58:16.552Z,33.00
2023-05-05T19:00:44.339Z,32.90
2023-05-05T19:03:12.791Z,32.90
2023-05-05T19:05:49.581Z,32.90
2023-05-05T19:08:17.402Z,32.80
2023-05-05T19:10:45.301Z,32.80
2023-05-05T19:13:17.764Z,32.80
2023-05-05T19:15:50.123Z,32.70
2023-05-05T19:18:18.357Z,32.70
2023-05-05T19:20:45.958Z,32.80
2023-05-05T19:23:15.694Z,32.70
2023-05-05T19:25:43.767Z,32.70
2023-05-05T19:28:11.510Z,32.70
2023-05-05T19:30:39.148Z,32.60
2023-05-05T19:33:08.888Z,32.70
2023-05-05T19:35:41.107Z,32.70
2023-05-05T19:38:09.524Z,32.50
2023-05-05T19:40:38.371Z,32.50
2023-05-05T19:43:06.269Z,32.50
2023-05-05T19:45:36.037Z,32.40
2023-05-05T19:48:04.469Z,32.50
2023-05-05T19:50:32.264Z,32.50
2023-05-05T19:53:00.682Z,32.50
2023-05-05T19:55:32.502Z,32.60
2023-05-05T19:58:00.774Z,32.50
2023-05-05T20:00:29.014Z,32.50
2023-05-05T20:03:01.030Z,32.50
2023-05-05T20:05:29.283Z,32.50
2023-05-05T20:08:05.927Z,32.40
2023-05-05T20:10:34.042Z,32.30
2023-05-05T20:13:01.879Z,32.30
2023-05-05T20:15:31.300Z,32.50
2023-05-05T20:18:08.306Z,32.40
2023-05-05T20:20:39.058Z,32.30
2023-05-05T20:23:22.968Z,32.30
2023-05-05T20:25:52.134Z,32.30
2023-05-05T20:28:22.247Z,32.30
2023-05-05T20:30:52.701Z,32.30
2023-05-05T20:33:23.687Z,32.30
2023-05-05T20:35:56.271Z,32.30
2023-05-05T20:38:24.897Z,32.30
2023-05-05T20:41:00.370Z,32.30
2023-05-05T20:43:31.514Z,32.20
2023-05-05T20:46:00.784Z,32.10
2023-05-05T20:51:14.512Z,32.10
2023-05-05T20:53:43.711Z,32.10
2023-05-05T20:56:14.428Z,32.10
2023-05-05T20:58:48.511Z,32.10
2023-05-05T21:01:17.809Z,32.10
2023-05-05T21:03:51.854Z,32.10
2023-05-05T21:06:39.292Z,32.10
2023-05-05T21:09:18.971Z,32.10
2023-05-05T21:12:05.415Z,32.10
2023-05-05T21:14:34.441Z,32.00
2023-05-05T21:17:08.819Z,32.00
2023-05-05T21:19:38.991Z,31.90
2023-05-05T21:22:20.791Z,31.90
2023-05-05T21:24:52.529Z,32.00
2023-05-05T21:27:40.287Z,32.00
2023-05-05T21:30:10.674Z,32.00
2023-05-05T21:32:43.718Z,31.90
2023-05-05T21:35:20.150Z,31.90
2023-05-05T21:37:48.488Z,31.90
2023-05-05T21:40:16.688Z,31.90
2023-05-05T21:42:45.470Z,31.80
2023-05-05T21:45:16.208Z,31.90
2023-05-05T21:47:44.354Z,31.80
2023-05-05T21:50:12.645Z,31.90
2023-05-05T21:52:45.550Z,31.90
2023-05-05T21:55:13.849Z,31.90
2023-05-05T21:57:42.492Z,31.80
2023-05-05T22:00:11.701Z,31.80
2023-05-05T22:02:49.648Z,31.80
2023-05-05T22:05:18.579Z,31.80
2023-05-05T22:07:46.267Z,31.80
2023-05-05T22:10:18.632Z,31.80
2023-05-05T22:12:49.648Z,31.80
2023-05-05T22:15:20.061Z,31.70
2023-05-05T22:17:48.309Z,31.70
2023-05-05T22:20:18.065Z,31.60
2023-05-05T22:22:56.844Z,31.50
2023-05-05T22:25:27.981Z,31.60
2023-05-05T22:27:58.754Z,31.60
2023-05-05T22:30:27.206Z,31.60
2023-05-05T22:32:55.410Z,31.60
2023-05-05T22:35:23.403Z,31.40
2023-05-05T22:37:51.851Z,31.50
2023-05-05T22:40:19.682Z,31.50
2023-05-05T22:42:49.067Z,31.60
2023-05-05T22:45:17.215Z,31.50
2023-05-05T22:47:44.870Z,31.50
2023-05-05T22:50:13.908Z,31.50
2023-05-05T22:52:42.348Z,31.50
2023-05-05T22:55:10.456Z,31.50
2023-05-05T22:57:39.558Z,31.50
2023-05-05T23:00:07.840Z,31.50
2023-05-05T23:02:37.657Z,31.50
2023-05-05T23:05:06.714Z,31.50
2023-05-05T23:07:38.081Z,31.50
2023-05-05T23:10:07.968Z,31.50
2023-05-05T23:12:37.074Z,31.40
2023-05-05T23:15:08.240Z,31.40
2023-05-05T23:17:38.039Z,31.40
2023-05-05T23:20:07.741Z,31.50
2023-05-05T23:22:37.433Z,31.50
2023-05-05T23:25:09.077Z,31.60
2023-05-05T23:27:38.443Z,31.50
2023-05-05T23:30:06.695Z,31.50
2023-05-05T23:32:36.740Z,31.50
2023-05-05T23:35:04.657Z,31.60
2023-05-05T23:37:33.416Z,31.60
2023-05-05T23:40:01.599Z,31.70
2023-05-05T23:42:29.854Z,31.60
2023-05-05T23:44:58.021Z,31.60
2023-05-05T23:47:26.140Z,31.70
2023-05-05T23:49:54.259Z,31.70
2023-05-05T23:52:23.385Z,31.60
2023-05-05T23:54:52.864Z,31.70
2023-05-05T23:57:20.495Z,31.60
2023-05-05T23:59:52.100Z,31.60
